Time;durP1;ratioP1;P1;durP2;ratioP2;P2;SDS_P1;SDS_P2;PMS_P1;PMS_P2;Temp;Humidity;BMP_temperature;BMP_pressure;BME280_temperature;BME280_humidity;BME280_pressure;Samples;Min_cycle;Max_cycle;Signal;HPM_P1;HPM_P2
2023/12/17 00:01:09;;;;;;;7.63;7.13;;;;;;;2.74;100.00;146746.56;6185214;23;20522;-61
2023/12/17 00:03:36;;;;;;;7.07;6.47;;;;;;;2.67;100.00;146728.97;6185973;23;20671;-61
2023/12/17 00:06:03;;;;;;;7.60;6.90;;;;;;;2.67;100.00;146728.97;6185495;23;20173;-61
2023/12/17 00:08:31;;;;;;;7.30;6.73;;;;;;;2.73;100.00;146745.28;6185925;23;20150;-61
2023/12/17 00:10:59;;;;;;;8.67;6.27;;;;;;;2.64;100.00;146722.69;6185812;23;20576;-61
2023/12/17 00:13:26;;;;;;;7.13;6.57;;;;;;;2.63;100.00;146718.94;6186049;23;20162;-61
2023/12/17 00:15:54;;;;;;;6.83;6.47;;;;;;;2.58;100.00;146707.63;6185363;23;20165;-63
2023/12/17 00:18:21;;;;;;;6.97;6.57;;;;;;;2.74;100.00;146746.56;6185997;23;20247;-61
2023/12/17 00:20:49;;;;;;;7.77;7.10;;;;;;;2.84;100.00;146770.41;6185352;23;20158;-62
2023/12/17 00:23:16;;;;;;;8.70;7.17;;;;;;;2.86;100.00;146775.41;6185629;23;20214;-61
2023/12/17 00:25:43;;;;;;;7.47;6.97;;;;;;;2.90;100.00;146786.72;6186083;23;20158;-61
2023/12/17 00:28:10;;;;;;;7.30;6.80;;;;;;;2.83;100.00;146767.91;6186027;23;20158;-61
2023/12/17 00:30:37;;;;;;;6.87;6.37;;;;;;;2.90;100.00;146785.47;6185555;23;20192;-61
2023/12/17 00:33:05;;;;;;;7.10;6.70;;;;;;;2.93;100.00;146794.25;6186141;23;20189;-62
2023/12/17 00:35:32;;;;;;;7.43;6.93;;;;;;;2.95;100.00;146798.03;6185274;23;20158;-62
2023/12/17 00:38:00;;;;;;;7.50;7.00;;;;;;;2.87;100.00;146777.94;6185725;23;20242;-61
2023/12/17 00:40:27;;;;;;;8.00;7.30;;;;;;;2.96;100.00;146801.81;6185214;23;20242;-61
2023/12/17 00:42:54;;;;;;;7.30;6.80;;;;;;;2.96;100.00;146801.81;6185801;23;20478;-63
2023/12/17 00:45:21;;;;;;;7.13;6.63;;;;;;;3.09;100.00;146834.47;6186111;23;20162;-62
2023/12/17 00:47:48;;;;;;;7.67;7.17;;;;;;;3.08;100.00;146831.97;6185021;23;20158;-61
2023/12/17 00:50:16;;;;;;;8.13;7.50;;;;;;;3.08;100.00;146831.97;6184950;23;20217;-61
2023/12/17 00:52:44;;;;;;;7.63;7.23;;;;;;;3.02;100.00;146816.84;6185385;23;20256;-61
2023/12/17 00:55:11;;;;;;;8.40;7.60;;;;;;;3.03;100.00;146818.13;6185529;23;20159;-62
2023/12/17 00:57:38;;;;;;;8.50;7.80;;;;;;;2.91;100.00;146789.25;6185067;23;20248;-62
2023/12/17 01:00:06;;;;;;;8.27;7.73;;;;;;;2.96;100.00;146801.81;6185073;23;20216;-62
2023/12/17 01:02:33;;;;;;;8.33;7.73;;;;;;;3.00;100.00;146811.88;6185518;23;20234;-61
2023/12/17 01:05:00;;;;;;;7.93;7.40;;;;;;;2.91;100.00;146788.00;6185047;23;20162;-61
2023/12/17 01:07:28;;;;;;;8.27;7.73;;;;;;;2.93;100.00;146794.25;6185642;23;20181;-62
2023/12/17 01:09:55;;;;;;;8.20;7.70;;;;;;;2.84;100.00;146770.41;6185180;23;20589;-62
2023/12/17 01:12:22;;;;;;;7.80;7.27;;;;;;;2.88;100.00;146781.72;6184417;23;20158;-61
2023/12/17 01:14:49;;;;;;;7.60;7.00;;;;;;;2.88;100.00;146781.72;6185433;23;20659;-63
2023/12/17 01:17:16;;;;;;;7.17;6.77;;;;;;;2.88;100.00;146781.72;6185063;23;20174;-62
2023/12/17 01:19:43;;;;;;;8.10;7.60;;;;;;;2.81;100.00;146762.84;6185249;23;20158;-61
2023/12/17 01:22:10;;;;;;;7.77;7.27;;;;;;;2.85;100.00;146772.91;6185427;23;20165;-62
2023/12/17 01:24:41;;;;;;;7.50;6.90;;;;;;;2.67;100.00;146728.97;6184632;23;20243;-63
2023/12/17 01:27:08;;;;;;;8.17;7.37;;;;;;;2.79;100.00;146759.13;6184950;23;20188;-61
2023/12/17 01:29:35;;;;;;;8.03;7.53;;;;;;;2.63;100.00;146720.16;6184855;23;20215;-61
2023/12/17 01:32:02;;;;;;;8.40;7.73;;;;;;;2.78;100.00;146756.59;6185558;23;20163;-61
2023/12/17 01:34:29;;;;;;;7.13;6.70;;;;;;;2.81;100.00;146762.84;6185427;23;20162;-62
2023/12/17 01:36:56;;;;;;;7.33;6.80;;;;;;;3.05;100.00;146824.44;6185616;23;20166;-61
2023/12/17 01:39:23;;;;;;;8.00;7.40;;;;;;;3.08;100.00;146831.97;6184460;23;20679;-60
2023/12/17 01:41:52;;;;;;;7.60;7.20;;;;;;;3.09;100.00;146834.47;6184591;23;20233;-61
2023/12/17 01:44:19;;;;;;;7.83;7.23;;;;;;;2.96;100.00;146801.81;6184953;23;20676;-61
2023/12/17 01:46:46;;;;;;;7.27;6.83;;;;;;;3.07;100.00;146829.44;6184973;23;20609;-60
2023/12/17 01:49:13;;;;;;;7.20;6.60;;;;;;;2.59;100.00;146708.91;6184445;23;20225;-61
2023/12/17 01:51:42;;;;;;;8.03;7.50;;;;;;;2.94;100.00;146796.78;6185658;23;20232;-61
2023/12/17 01:54:09;;;;;;;7.57;7.17;;;;;;;3.06;100.00;146825.66;6184210;23;20252;-62
2023/12/17 01:56:37;;;;;;;7.60;7.10;;;;;;;2.98;100.00;146806.81;6184205;23;20166;-61
2023/12/17 01:59:06;;;;;;;7.60;7.20;;;;;;;2.96;100.00;146801.81;6184660;23;20237;-62
2023/12/17 02:01:33;;;;;;;7.47;6.87;;;;;;;3.00;100.00;146811.88;6184899;23;20165;-61
2023/12/17 02:04:01;;;;;;;7.40;6.90;;;;;;;3.02;100.00;146815.59;6184651;23;20217;-61
2023/12/17 02:06:28;;;;;;;7.57;6.83;;;;;;;3.06;100.00;146826.91;6184884;23;20683;-62
2023/12/17 02:08:55;;;;;;;7.53;7.13;;;;;;;3.08;100.00;146831.97;6184369;23;20154;-61
2023/12/17 02:11:22;;;;;;;7.60;7.20;;;;;;;3.14;100.00;146847.00;6184879;23;20162;-60
2023/12/17 02:13:49;;;;;;;7.67;7.17;;;;;;;3.16;100.00;146852.06;6184767;23;20166;-63
2023/12/17 02:16:17;;;;;;;7.47;6.90;;;;;;;3.17;100.00;146854.56;6184353;23;20173;-61
2023/12/17 02:18:44;;;;;;;7.10;6.70;;;;;;;3.18;100.00;146855.84;6184530;23;20188;-60
2023/12/17 02:21:11;;;;;;;7.10;6.60;;;;;;;3.13;100.00;146843.28;6184385;23;20158;-62
2023/12/17 02:23:40;;;;;;;7.07;6.37;;;;;;;3.08;100.00;146831.97;6184171;23;20501;-61
2023/12/17 02:26:07;;;;;;;7.07;6.67;;;;;;;3.08;100.00;146830.69;6184692;23;20238;-61
2023/12/17 02:28:34;;;;;;;6.60;6.20;;;;;;;2.99;100.00;146809.34;6184271;23;20665;-61
2023/12/17 02:31:01;;;;;;;7.37;6.63;;;;;;;3.01;100.00;146813.13;6184374;23;20605;-61
2023/12/17 02:33:28;;;;;;;7.37;6.87;;;;;;;2.86;100.00;146775.41;6184504;23;20494;-61
2023/12/17 02:35:55;;;;;;;7.33;6.83;;;;;;;2.84;100.00;146771.69;6184207;23;20162;-61
2023/12/17 02:38:22;;;;;;;7.37;6.97;;;;;;;2.81;100.00;146764.13;6184431;23;20267;-60
2023/12/17 02:40:51;;;;;;;7.50;7.00;;;;;;;2.70;100.00;146736.50;6184138;23;20165;-61
2023/12/17 02:43:18;;;;;;;8.10;7.00;;;;;;;2.76;100.00;146751.53;6184460;23;20549;-63
2023/12/17 02:45:45;;;;;;;7.30;6.80;;;;;;;2.56;100.00;146701.34;6184139;23;20216;-63
2023/12/17 02:48:12;;;;;;;7.57;7.07;;;;;;;2.55;100.00;146698.81;6184358;23;20229;-62
2023/12/17 02:50:39;;;;;;;6.93;6.43;;;;;;;2.48;100.00;146682.50;6185015;23;20158;-61
2023/12/17 02:53:06;;;;;;;7.17;6.67;;;;;;;2.42;100.00;146667.44;6184398;23;20212;-61
2023/12/17 02:55:33;;;;;;;8.07;7.47;;;;;;;2.64;100.00;146721.41;6184213;23;20165;-62
2023/12/17 02:58:05;;;;;;;7.40;6.70;;;;;;;2.62;100.00;146717.69;6183932;23;20237;-62
2023/12/17 03:00:32;;;;;;;6.93;6.50;;;;;;;2.64;100.00;146721.41;6184675;23;20671;-61
2023/12/17 03:03:00;;;;;;;8.20;7.60;;;;;;;2.62;100.00;146716.41;6184391;23;20169;-62
2023/12/17 03:05:27;;;;;;;8.37;7.77;;;;;;;2.44;100.00;146671.22;6183750;23;20170;-61
2023/12/17 03:07:54;;;;;;;7.40;6.90;;;;;;;2.58;100.00;146706.38;6184323;23;20151;-61
2023/12/17 03:10:21;;;;;;;8.90;7.30;;;;;;;2.56;100.00;146701.34;6184293;23;20197;-61
2023/12/17 03:12:48;;;;;;;7.63;7.13;;;;;;;2.52;100.00;146692.56;6183576;23;20162;-62
2023/12/17 03:15:16;;;;;;;11.67;7.60;;;;;;;2.47;100.00;146680.00;6184138;23;20213;-63
2023/12/17 03:17:43;;;;;;;7.20;6.80;;;;;;;2.45;100.00;146675.00;6184742;23;20162;-62
2023/12/17 03:20:11;;;;;;;7.57;7.07;;;;;;;2.56;100.00;146702.59;6184233;23;20185;-62
2023/12/17 03:22:38;;;;;;;8.70;7.90;;;;;;;2.28;100.00;146633.56;6184175;23;20556;-62
2023/12/17 03:25:06;;;;;;;7.77;7.27;;;;;;;2.26;100.00;146627.25;6184083;23;20168;-61
2023/12/17 03:27:33;;;;;;;8.13;7.43;;;;;;;2.21;100.00;146615.97;6184312;23;20605;-61
2023/12/17 03:30:00;;;;;;;7.07;6.67;;;;;;;2.20;100.00;146613.50;6183664;23;20209;-62
2023/12/17 03:32:28;;;;;;;7.30;6.80;;;;;;;2.21;100.00;146615.97;6184072;23;20228;-62
2023/12/17 03:34:55;;;;;;;7.40;6.80;;;;;;;2.24;100.00;146623.53;6184802;23;20605;-61
2023/12/17 03:37:22;;;;;;;7.47;7.07;;;;;;;2.10;100.00;146588.38;6185660;23;20162;-62
2023/12/17 03:39:50;;;;;;;7.63;7.13;;;;;;;2.25;100.00;146624.75;6186298;23;20182;-62
2023/12/17 03:42:17;;;;;;;7.40;6.90;;;;;;;2.29;100.00;146636.03;6185991;23;20180;-62
2023/12/17 03:44:46;;;;;;;7.23;6.83;;;;;;;2.34;100.00;146646.09;6185797;23;20194;-62
2023/12/17 03:47:13;;;;;;;7.17;6.67;;;;;;;2.31;100.00;146639.81;6185668;23;20197;-60
2023/12/17 03:49:41;;;;;;;7.07;6.67;;;;;;;2.17;100.00;146605.94;6185675;23;20158;-61
2023/12/17 03:52:08;;;;;;;7.77;7.17;;;;;;;2.10;100.00;146588.38;6185914;23;20170;-62
2023/12/17 03:54:35;;;;;;;6.93;6.53;;;;;;;2.28;100.00;146633.56;6186006;23;20530;-62
2023/12/17 03:57:03;;;;;;;8.10;7.40;;;;;;;2.33;100.00;146643.59;6185430;23;20170;-61
2023/12/17 03:59:30;;;;;;;13.90;7.80;;;;;;;2.14;100.00;146597.16;6185911;23;20707;-63
2023/12/17 04:02:01;;;;;;;8.77;7.83;;;;;;;1.82;100.00;146518.13;6186190;23;20553;-61
2023/12/17 04:04:28;;;;;;;11.20;7.90;;;;;;;2.01;100.00;146564.50;6185505;23;20169;-62
2023/12/17 04:06:57;;;;;;;8.53;7.53;;;;;;;2.00;100.00;146563.25;6185825;23;20158;-62
2023/12/17 04:09:24;;;;;;;7.60;7.10;;;;;;;1.98;100.00;146558.25;6185476;23;20213;-62
2023/12/17 04:11:51;;;;;;;9.37;7.63;;;;;;;2.05;100.00;146575.81;6186076;23;20197;-63
2023/12/17 04:14:18;;;;;;;8.23;7.57;;;;;;;2.05;100.00;146575.81;6185816;23;20520;-63
2023/12/17 04:16:45;;;;;;;7.77;7.17;;;;;;;2.03;100.00;146570.81;6185602;23;20162;-61
2023/12/17 04:19:12;;;;;;;8.10;7.30;;;;;;;2.04;100.00;146573.28;6185920;23;20182;-62
2023/12/17 04:21:40;;;;;;;7.27;6.77;;;;;;;2.01;100.00;146565.78;6185397;23;20162;-61
2023/12/17 04:24:08;;;;;;;11.20;7.40;;;;;;;2.02;100.00;146567.03;6186725;23;20601;-61
2023/12/17 04:26:36;;;;;;;17.27;8.93;;;;;;;1.96;100.00;146553.22;6185774;23;20234;-61
2023/12/17 04:29:03;;;;;;;21.67;8.17;;;;;;;1.98;100.00;146558.25;6185491;23;20161;-62
2023/12/17 04:31:30;;;;;;;15.07;8.10;;;;;;;1.85;100.00;146525.63;6185486;23;20590;-61
2023/12/17 04:33:57;;;;;;;8.83;7.93;;;;;;;1.44;100.00;146422.78;6184948;23;20221;-62
2023/12/17 04:36:24;;;;;;;17.90;8.93;;;;;;;1.46;100.00;146427.75;6186047;23;20185;-61
2023/12/17 04:38:52;;;;;;;9.60;7.87;;;;;;;1.47;100.00;137735.34;6184790;23;20260;-61
2023/12/17 04:41:20;;;;;;;14.23;8.93;;;;;;;1.47;100.00;122198.63;6185870;23;20169;-62
2023/12/17 04:43:47;;;;;;;14.40;9.57;;;;;;;1.26;100.00;109455.63;6186117;23;20166;-61
2023/12/17 04:46:14;;;;;;;18.57;10.03;;;;;;;1.43;100.00;96827.88;6184860;23;20261;-62
2023/12/17 04:48:41;;;;;;;11.30;9.80;;;;;;;1.38;100.00;88730.59;6185434;23;20159;-63
2023/12/17 04:51:08;;;;;;;15.20;11.27;;;;;;;1.57;100.00;83266.19;6185657;23;20236;-62
2023/12/17 04:53:36;;;;;;;15.87;11.33;;;;;;;1.57;100.00;78105.28;6184991;23;20202;-63
2023/12/17 04:56:04;;;;;;;15.80;11.07;;;;;;;1.56;100.00;72307.94;6185758;23;20208;-63
2023/12/17 04:58:32;;;;;;;16.07;11.53;;;;;;;1.50;100.00;66513.53;6185562;23;20204;-61
2023/12/17 05:01:02;;;;;;;14.97;11.77;;;;;;;1.59;100.00;64597.59;6185862;23;20598;-62
2023/12/17 05:03:29;;;;;;;21.10;12.03;;;;;;;1.60;100.00;62993.78;6185157;23;20178;-62
2023/12/17 05:05:56;;;;;;;20.37;12.63;;;;;;;1.59;100.00;62350.41;6185145;23;20516;-62
2023/12/17 05:08:23;;;;;;;20.97;11.77;;;;;;;1.72;100.00;63327.38;6185036;23;20154;-61
2023/12/17 05:10:50;;;;;;;15.13;11.80;;;;;;;1.74;100.00;63971.66;6184878;23;20211;-61
2023/12/17 05:13:18;;;;;;;47.67;13.20;;;;;;;1.73;100.00;65255.63;6184705;23;20165;-61
2023/12/17 05:15:46;;;;;;;29.53;11.83;;;;;;;1.78;100.00;67510.00;6186014;23;20162;-62
2023/12/17 05:18:13;;;;;;;19.23;11.73;;;;;;;1.60;100.00;68131.66;6185016;23;20165;-62
2023/12/17 05:20:41;;;;;;;23.90;12.10;;;;;;;1.68;100.00;65892.34;6184635;23;20182;-61
2023/12/17 05:23:10;;;;;;;17.87;11.70;;;;;;;1.55;100.00;65877.50;6185326;23;20162;-63
2023/12/17 05:25:37;;;;;;;22.57;12.10;;;;;;;1.57;100.00;63631.81;6184791;23;20166;-62
2023/12/17 05:28:05;;;;;;;17.07;11.57;;;;;;;1.57;100.00;65236.94;6184696;23;20162;-61
2023/12/17 05:30:32;;;;;;;12.03;10.90;;;;;;;1.71;100.00;63968.88;6185804;23;20538;-62
2023/12/17 05:33:00;;;;;;;21.37;12.20;;;;;;;1.66;100.00;64926.56;6185350;23;20166;-62
2023/12/17 05:35:27;;;;;;;20.43;11.83;;;;;;;1.76;100.00;65579.69;6184830;23;20158;-62
2023/12/17 05:37:54;;;;;;;16.27;11.43;;;;;;;1.94;100.00;66885.16;6185117;23;20169;-63
2023/12/17 05:40:21;;;;;;;17.27;11.83;;;;;;;1.96;100.00;68495.16;6185197;23;20237;-63
2023/12/17 05:42:48;;;;;;;16.17;11.67;;;;;;;2.03;100.00;69147.44;6184290;23;20170;-63
2023/12/17 05:45:16;;;;;;;22.20;13.00;;;;;;;1.82;100.00;72017.94;6184883;23;20241;-62
2023/12/17 05:47:43;;;;;;;16.93;11.93;;;;;;;1.84;100.00;71054.91;6184799;23;20192;-63
2023/12/17 05:50:11;;;;;;;15.83;11.50;;;;;;;1.80;100.00;69763.13;6185035;23;20565;-62
2023/12/17 05:52:40;;;;;;;23.70;12.17;;;;;;;1.93;100.00;70421.72;6184826;23;20205;-63
2023/12/17 05:55:08;;;;;;;38.10;17.17;;;;;;;1.82;100.00;71053.03;6184491;23;20181;-61
2023/12/17 05:57:36;;;;;;;21.07;15.60;;;;;;;1.72;100.00;69431.88;6184227;23;20162;-61
2023/12/17 06:00:03;;;;;;;26.83;15.27;;;;;;;1.93;100.00;67848.47;6184137;23;20256;-62
2023/12/17 06:02:30;;;;;;;17.50;14.33;;;;;;;1.99;100.00;69142.06;6185658;23;20162;-61
2023/12/17 06:04:57;;;;;;;15.53;13.70;;;;;;;2.22;100.00;69170.19;6184629;23;20162;-61
2023/12/17 06:07:25;;;;;;;26.93;14.27;;;;;;;2.53;100.00;72427.44;6185277;23;20162;-62
2023/12/17 06:09:52;;;;;;;21.87;15.90;;;;;;;2.81;100.00;85707.78;6184250;23;20156;-62
2023/12/17 06:12:19;;;;;;;20.47;13.53;;;;;;;3.15;100.00;106872.44;6184028;23;20162;-63
2023/12/17 06:14:46;;;;;;;18.30;12.83;;;;;;;3.43;100.00;134767.53;6184891;23;20164;-62
2023/12/17 06:17:14;;;;;;;14.77;11.37;;;;;;;3.78;100.00;147005.31;6184521;23;20224;-64
2023/12/17 06:19:41;;;;;;;13.50;11.63;;;;;;;3.99;100.00;147056.84;6183985;23;20182;-62
2023/12/17 06:22:11;;;;;;;15.53;11.40;;;;;;;4.33;100.00;147142.34;6184889;23;20642;-63
2023/12/17 06:24:40;;;;;;;12.40;11.17;;;;;;;4.62;100.00;147214.09;6184475;23;20162;-61
2023/12/17 06:27:07;;;;;;;12.63;10.20;;;;;;;5.35;100.00;147395.22;6184369;23;20158;-62
2023/12/17 06:29:34;;;;;;;17.73;10.90;;;;;;;5.74;100.00;147492.16;6185331;23;20229;-61
2023/12/17 06:32:02;;;;;;;13.67;11.43;;;;;;;5.83;100.00;147516.09;6184824;23;20162;-61
2023/12/17 06:34:29;;;;;;;11.60;10.60;;;;;;;6.24;100.00;147616.84;6185070;23;20213;-62
2023/12/17 06:36:56;;;;;;;10.87;9.87;;;;;;;6.57;100.00;147698.78;6184325;23;20162;-62
2023/12/17 06:39:23;;;;;;;12.03;10.00;;;;;;;7.01;100.00;147808.38;6185092;23;20711;-62
2023/12/17 06:41:52;;;;;;;9.77;8.97;;;;;;;7.61;100.00;147959.66;6184684;23;20162;-63
2023/12/17 06:44:19;;;;;;;10.73;9.63;;;;;;;7.90;100.00;148030.28;6185004;23;20162;-62
2023/12/17 06:46:46;;;;;;;10.10;9.30;;;;;;;7.64;100.00;147967.22;6183957;23;20220;-62
2023/12/17 06:49:13;;;;;;;10.13;9.23;;;;;;;7.61;100.00;147959.66;6184423;23;20158;-62
2023/12/17 06:51:41;;;;;;;10.90;10.00;;;;;;;7.72;100.00;147986.16;6185592;23;20178;-63
2023/12/17 06:54:08;;;;;;;15.97;9.43;;;;;;;7.64;100.00;147965.94;6183873;23;20288;-63
2023/12/17 06:56:35;;;;;;;9.97;9.07;;;;;;;7.53;100.00;147938.22;6184913;23;20541;-61
2023/12/17 06:59:05;;;;;;;10.73;9.63;;;;;;;7.91;100.00;148034.06;6183690;23;20170;-63
2023/12/17 07:01:32;;;;;;;9.67;9.03;;;;;;;8.78;100.00;148249.91;6184605;23;20252;-61
2023/12/17 07:03:59;;;;;;;10.30;9.50;;;;;;;8.89;100.00;148278.91;6184620;23;20572;-61
2023/12/17 07:06:26;;;;;;;9.23;8.43;;;;;;;9.03;100.00;148314.28;6184269;23;20212;-61
2023/12/17 07:08:53;;;;;;;14.07;9.73;;;;;;;10.14;100.00;148590.88;6184600;23;20220;-62
2023/12/17 07:11:20;;;;;;;10.40;9.50;;;;;;;11.46;100.00;148922.13;6184819;23;20162;-62
2023/12/17 07:13:49;;;;;;;11.30;10.27;;;;;;;11.27;100.00;148874.09;6184181;23;20169;-61
2023/12/17 07:16:22;;;;;;;11.23;10.30;;;;;;;11.30;100.00;148881.66;6184573;23;20162;-61
2023/12/17 07:18:49;;;;;;;10.00;9.40;;;;;;;11.50;100.00;148929.75;6184241;23;20174;-63
2023/12/17 07:21:16;;;;;;;9.73;9.17;;;;;;;11.44;100.00;148917.09;6184771;23;20185;-63
2023/12/17 07:23:44;;;;;;;11.37;9.37;;;;;;;11.54;99.97;148939.88;6184755;23;20162;-62
2023/12/17 07:26:11;;;;;;;10.93;9.83;;;;;;;12.17;95.86;149099.34;6184025;23;20221;-62
2023/12/17 07:28:38;;;;;;;9.30;8.80;;;;;;;13.11;86.35;149334.84;6184469;23;20220;-62
2023/12/17 07:31:05;;;;;;;10.83;9.73;;;;;;;12.04;90.35;149065.16;6184390;23;20245;-63
2023/12/17 07:33:34;;;;;;;11.30;10.30;;;;;;;12.01;96.14;149058.81;6184321;23;20158;-62
2023/12/17 07:36:01;;;;;;;10.83;9.87;;;;;;;12.28;93.88;149125.91;6184065;23;20506;-62
2023/12/17 07:38:28;;;;;;;11.10;10.07;;;;;;;12.03;96.50;149062.63;6184046;23;20497;-62
2023/12/17 07:40:55;;;;;;;14.63;11.20;;;;;;;11.71;99.16;148982.88;6184128;23;20178;-63
2023/12/17 07:43:22;;;;;;;11.57;10.43;;;;;;;11.53;100.00;148937.34;6184860;23;20159;-61
2023/12/17 07:45:49;;;;;;;10.70;9.90;;;;;;;12.02;97.95;149060.09;6184610;23;20166;-62
2023/12/17 07:48:16;;;;;;;10.57;9.87;;;;;;;12.09;93.79;149079.09;6184739;23;20545;-62
2023/12/17 07:50:44;;;;;;;10.67;9.57;;;;;;;11.96;97.63;149046.19;6184398;23;20154;-60
2023/12/17 07:53:11;;;;;;;11.43;10.37;;;;;;;12.80;89.23;149256.31;6184653;23;20718;-62
2023/12/17 07:55:38;;;;;;;13.90;11.03;;;;;;;12.08;98.01;149076.56;6184442;23;20166;-62
2023/12/17 07:58:06;;;;;;;12.27;10.97;;;;;;;12.32;92.91;149137.31;6184298;23;20162;-62
2023/12/17 08:00:32;;;;;;;12.37;11.43;;;;;;;11.89;98.33;149029.72;6184387;23;20182;-62
2023/12/17 08:03:00;;;;;;;10.07;9.27;;;;;;;11.88;98.38;149025.97;6184739;23;20158;-62
2023/12/17 08:05:27;;;;;;;11.77;10.73;;;;;;;12.30;95.67;149132.25;6184061;23;20167;-62
2023/12/17 08:07:55;;;;;;;12.27;10.87;;;;;;;12.54;94.00;149190.47;6184319;23;20222;-61
2023/12/17 08:10:22;;;;;;;11.97;10.83;;;;;;;13.68;85.45;149476.75;6184116;23;20162;-62
2023/12/17 08:12:49;;;;;;;10.87;9.70;;;;;;;14.56;77.81;149697.34;6184146;23;20573;-63
2023/12/17 08:15:16;;;;;;;10.43;9.40;;;;;;;14.38;76.88;149651.75;6183717;23;20197;-62
2023/12/17 08:17:43;;;;;;;10.17;9.00;;;;;;;14.89;69.30;149781.09;6183597;23;20158;-62
2023/12/17 08:20:10;;;;;;;9.70;8.77;;;;;;;15.39;65.10;149906.66;6184643;23;20178;-62
2023/12/17 08:22:37;;;;;;;13.60;8.87;;;;;;;16.64;60.15;150220.28;6185529;23;20154;-62
2023/12/17 08:25:06;;;;;;;30.23;10.30;;;;;;;17.41;56.79;150413.38;6186588;23;20167;-61
2023/12/17 08:27:33;;;;;;;11.80;7.90;;;;;;;16.43;57.77;150166.91;6186360;23;20162;-62
2023/12/17 08:30:00;;;;;;;8.10;7.57;;;;;;;17.00;57.35;150309.19;6186144;23;20162;-62
2023/12/17 08:32:31;;;;;;;7.47;6.77;;;;;;;16.60;56.97;150210.13;6185675;23;20581;-62
2023/12/17 08:34:59;;;;;;;7.43;7.03;;;;;;;17.48;53.94;150429.91;6185527;23;20159;-62
2023/12/17 08:37:26;;;;;;;17.03;8.03;;;;;;;16.96;55.29;150299.03;6186335;23;20641;-62
2023/12/17 08:39:54;;;;;;;16.10;8.27;;;;;;;18.68;53.03;150733.84;6185456;23;20264;-62
2023/12/17 08:42:22;;;;;;;8.03;7.53;;;;;;;18.82;48.73;150766.91;6186519;23;20217;-62
2023/12/17 08:44:50;;;;;;;8.33;7.67;;;;;;;19.08;49.24;150833.06;6185312;23;20221;-62
2023/12/17 08:47:17;;;;;;;9.13;8.20;;;;;;;19.15;48.36;150850.88;6185705;23;20186;-61
2023/12/17 08:49:44;;;;;;;15.40;10.30;;;;;;;18.15;52.15;150599.00;6187313;23;20192;-62
2023/12/17 08:52:12;;;;;;;9.57;8.50;;;;;;;17.07;54.22;150326.97;6186102;23;20581;-62
2023/12/17 08:54:39;;;;;;;10.17;9.17;;;;;;;15.67;58.80;149976.50;6186312;23;20181;-63
2023/12/17 08:57:06;;;;;;;9.50;9.00;;;;;;;14.99;65.31;149806.44;6185320;23;20221;-62
2023/12/17 08:59:35;;;;;;;10.73;10.07;;;;;;;15.43;67.21;149915.53;6185378;23;20163;-62
2023/12/17 09:02:02;;;;;;;9.30;8.60;;;;;;;16.08;62.45;150078.06;6185165;23;20166;-63
2023/12/17 09:04:29;;;;;;;10.07;9.43;;;;;;;16.56;61.24;150198.63;6185043;23;20158;-61
2023/12/17 09:06:56;;;;;;;9.30;8.90;;;;;;;18.10;56.48;150586.28;6186115;23;20162;-63
2023/12/17 09:09:23;;;;;;;12.17;11.03;;;;;;;17.45;57.95;150423.53;6186261;23;20557;-63
2023/12/17 09:11:50;;;;;;;13.17;11.83;;;;;;;16.24;64.50;150119.94;6185504;23;20158;-62
2023/12/17 09:14:17;;;;;;;12.43;11.40;;;;;;;14.67;72.28;149724.00;6185429;23;20498;-62
2023/12/17 09:16:46;;;;;;;11.43;10.73;;;;;;;14.79;73.31;149754.44;6185597;23;20162;-62
2023/12/17 09:19:13;;;;;;;11.40;10.30;;;;;;;14.66;78.74;149722.72;6185434;23;20245;-62
2023/12/17 09:21:40;;;;;;;9.27;8.77;;;;;;;15.42;73.64;149913.00;6185588;23;20181;-62
2023/12/17 09:24:07;;;;;;;9.40;8.87;;;;;;;15.22;70.94;149862.25;6184871;23;20181;-62
2023/12/17 09:26:35;;;;;;;9.80;9.17;;;;;;;15.43;68.18;149915.53;6186266;23;20180;-61
2023/12/17 09:29:02;;;;;;;9.57;9.00;;;;;;;15.75;66.98;149996.78;6184821;23;20174;-62
2023/12/17 09:31:29;;;;;;;8.63;8.23;;;;;;;15.36;69.71;149897.78;6184538;23;20162;-61
2023/12/17 09:33:57;;;;;;;9.27;8.80;;;;;;;15.90;67.28;150034.88;6185556;23;20163;-62
2023/12/17 09:36:26;;;;;;;8.70;8.20;;;;;;;15.92;67.14;150039.94;6185396;23;20163;-62
2023/12/17 09:38:53;;;;;;;8.80;8.33;;;;;;;15.85;65.43;150020.91;6185951;23;20168;-62
2023/12/17 09:41:21;;;;;;;8.63;8.13;;;;;;;15.34;69.00;149893.97;6185152;23;20229;-62
2023/12/17 09:43:48;;;;;;;9.33;8.87;;;;;;;15.20;70.56;149858.44;6184868;23;20194;-62
2023/12/17 09:46:15;;;;;;;9.33;8.57;;;;;;;14.98;74.65;149803.88;6186170;23;20162;-61
2023/12/17 09:48:42;;;;;;;10.83;8.83;;;;;;;15.69;70.58;149980.31;6185300;23;20163;-62
2023/12/17 09:51:13;;;;;;;8.93;8.33;;;;;;;14.70;71.60;149732.88;6184898;23;20172;-62
2023/12/17 09:53:40;;;;;;;9.43;8.90;;;;;;;14.85;76.18;149770.91;6184857;23;20260;-62
2023/12/17 09:56:09;;;;;;;8.40;7.90;;;;;;;14.77;76.18;149750.63;6185915;23;20574;-61
2023/12/17 09:58:36;;;;;;;8.93;8.37;;;;;;;14.52;79.42;149687.22;6185015;23;20594;-62
2023/12/17 10:01:03;;;;;;;8.20;7.70;;;;;;;15.34;73.79;149893.97;6185191;23;20573;-60
2023/12/17 10:03:31;;;;;;;8.70;8.27;;;;;;;14.88;76.59;149777.28;6184771;23;20167;-61
2023/12/17 10:05:58;;;;;;;9.40;8.77;;;;;;;15.06;76.78;149824.19;6184914;23;20244;-61
2023/12/17 10:08:26;;;;;;;8.70;8.30;;;;;;;15.11;76.35;149834.38;6184560;23;20217;-61
2023/12/17 10:10:53;;;;;;;11.07;8.97;;;;;;;14.56;78.96;149697.34;6185495;23;20217;-62
2023/12/17 10:13:22;;;;;;;12.27;8.97;;;;;;;15.61;74.99;149960.00;6185991;23;20158;-61
2023/12/17 10:15:49;;;;;;;8.80;8.17;;;;;;;15.07;75.27;149825.44;6184585;23;20154;-61
2023/12/17 10:18:17;;;;;;;9.37;8.47;;;;;;;15.65;70.61;149971.44;6184682;23;20162;-61
2023/12/17 10:20:45;;;;;;;8.47;7.87;;;;;;;15.32;71.46;149888.88;6184008;23;20194;-61
2023/12/17 10:23:13;;;;;;;7.97;7.47;;;;;;;16.19;67.53;150107.25;6184597;23;20162;-62
2023/12/17 10:25:42;;;;;;;8.33;7.60;;;;;;;15.04;69.42;149819.13;6184228;23;20170;-62
2023/12/17 10:28:10;;;;;;;8.40;8.00;;;;;;;15.43;69.77;149915.53;6184825;23;20475;-62
2023/12/17 10:30:39;;;;;;;7.53;7.13;;;;;;;16.26;66.08;150125.00;6185310;23;20162;-62
2023/12/17 10:33:10;;;;;;;7.73;7.33;;;;;;;16.90;62.81;150286.34;6184216;23;20162;-62
2023/12/17 10:35:37;;;;;;;7.73;7.43;;;;;;;17.66;58.65;150476.97;6184171;23;20220;-62
2023/12/17 10:38:06;;;;;;;7.33;6.67;;;;;;;18.42;53.51;150667.66;6183923;23;20169;-62
2023/12/17 10:40:34;;;;;;;8.40;7.77;;;;;;;18.17;54.28;150604.06;6184181;23;20240;-62
2023/12/17 10:43:05;;;;;;;7.53;7.23;;;;;;;18.46;53.50;150676.59;6185233;23;20610;-62
2023/12/17 10:45:34;;;;;;;7.57;7.07;;;;;;;18.10;53.73;150587.56;6184555;23;20213;-61
2023/12/17 10:48:01;;;;;;;7.13;6.83;;;;;;;19.06;51.86;150827.97;6183895;23;20166;-62
2023/12/17 10:50:29;;;;;;;8.00;7.50;;;;;;;18.72;51.63;150742.72;6184251;23;20229;-61
2023/12/17 10:52:56;;;;;;;7.47;6.87;;;;;;;18.55;50.48;150700.75;6183928;23;20209;-61
2023/12/17 10:55:23;;;;;;;6.75;6.47;;;;;;;18.83;50.68;150769.47;6183886;23;20159;-63
2023/12/17 10:57:55;;;;;;;6.67;6.37;;;;;;;18.55;51.14;150699.50;6184609;23;20159;-61
2023/12/17 11:00:29;;;;;;;6.18;5.78;;;;;;;18.22;51.66;150616.78;6184652;23;20158;-62
2023/12/17 11:02:59;;;;;;;7.00;6.53;;;;;;;18.64;49.72;150722.38;6183889;23;20249;-62
2023/12/17 11:05:27;;;;;;;6.53;6.13;;;;;;;18.40;50.33;150661.31;6184955;23;20166;-62
2023/12/17 11:07:54;;;;;;;6.50;6.10;;;;;;;17.92;50.22;150540.50;6185199;23;20217;-61
2023/12/17 11:10:21;;;;;;;6.43;5.97;;;;;;;17.49;51.75;150433.69;6183996;23;20162;-62
2023/12/17 11:12:49;;;;;;;7.10;6.60;;;;;;;17.04;52.72;150319.38;6184130;23;20534;-62
2023/12/17 11:15:22;;;;;;;7.20;6.70;;;;;;;17.28;54.05;150380.34;6184544;23;20166;-62
2023/12/17 11:17:53;;;;;;;6.87;6.47;;;;;;;16.14;55.86;150093.25;6183655;23;20162;-61
2023/12/17 11:20:20;;;;;;;6.20;5.90;;;;;;;16.44;56.48;150170.72;6183827;23;20208;-61
2023/12/17 11:22:47;;;;;;;6.63;6.03;;;;;;;15.00;61.00;149807.69;6184095;23;20220;-62